createdAt,value
2022-08-19T00:00:26.470Z,17.67
2022-08-19T00:03:14.214Z,17.70
2022-08-19T00:06:01.375Z,17.63
2022-08-19T00:08:48.585Z,17.92
2022-08-19T00:11:38.060Z,18.08
2022-08-19T00:14:27.359Z,17.73
2022-08-19T00:17:14.664Z,17.65
2022-08-19T00:20:02.068Z,17.65
2022-08-19T00:22:55.852Z,16.63
2022-08-19T00:25:45.161Z,16.70
2022-08-19T00:28:36.791Z,18.25
2022-08-19T00:31:24.064Z,17.33
2022-08-19T00:34:13.022Z,17.92
2022-08-19T00:37:00.883Z,18.70
2022-08-19T00:39:49.218Z,19.35
2022-08-19T00:42:36.544Z,18.92
2022-08-19T00:45:26.891Z,20.55
2022-08-19T00:48:15.046Z,20.77
2022-08-19T00:51:02.987Z,20.50
2022-08-19T00:53:52.778Z,21.67
2022-08-19T00:56:42.659Z,21.52
2022-08-19T00:59:58.779Z,22.45
2022-08-19T01:02:37.401Z,22.48
2022-08-19T01:05:28.581Z,22.65
2022-08-19T01:08:18.168Z,23.38
2022-08-19T01:11:05.815Z,24.75
2022-08-19T01:13:54.309Z,23.83
2022-08-19T01:16:47.766Z,25.10
2022-08-19T01:19:43.783Z,23.77
2022-08-19T01:22:49.232Z,24.25
2022-08-19T01:25:44.450Z,24.67
2022-08-19T01:28:33.836Z,22.98
2022-08-19T01:31:27.040Z,24.15
2022-08-19T01:34:14.984Z,24.17
2022-08-19T01:37:09.010Z,25.23
2022-08-19T01:40:01.190Z,24.45
2022-08-19T01:42:52.352Z,25.45
2022-08-19T01:45:41.163Z,25.27
2022-08-19T01:48:30.179Z,25.65
2022-08-19T01:51:17.425Z,25.15
2022-08-19T01:54:06.238Z,24.58
2022-08-19T01:57:07.055Z,25.45
2022-08-19T01:59:54.605Z,25.42
2022-08-19T02:02:44.188Z,24.65
2022-08-19T02:05:31.491Z,24.00
2022-08-19T02:08:18.663Z,23.77
2022-08-19T02:11:07.843Z,24.98
2022-08-19T02:13:56.392Z,23.52
2022-08-19T02:16:43.556Z,24.77
2022-08-19T02:19:33.414Z,24.52
2022-08-19T02:22:26.481Z,24.20
2022-08-19T02:25:14.936Z,25.95
2022-08-19T02:28:02.358Z,25.50
2022-08-19T02:30:49.596Z,24.17
2022-08-19T02:33:36.726Z,25.13
2022-08-19T02:36:28.754Z,25.35
2022-08-19T02:39:17.452Z,26.02
2022-08-19T02:42:04.839Z,24.38
2022-08-19T02:44:52.807Z,24.45
2022-08-19T02:47:40.305Z,25.45
2022-08-19T02:50:27.479Z,24.58
2022-08-19T02:53:14.875Z,25.90
2022-08-19T02:56:07.370Z,26.15
2022-08-19T02:58:55.971Z,26.20
2022-08-19T03:01:43.643Z,26.38
2022-08-19T03:04:33.256Z,26.23
2022-08-19T03:07:20.397Z,25.20
2022-08-19T03:10:07.922Z,26.88
2022-08-19T03:12:57.246Z,26.35
2022-08-19T03:15:46.784Z,25.92
2022-08-19T03:18:36.542Z,27.15
2022-08-19T03:21:34.432Z,25.58
2022-08-19T03:24:21.736Z,27.45
2022-08-19T03:27:08.898Z,27.02
2022-08-19T03:29:58.412Z,25.95
2022-08-19T03:32:48.180Z,25.45
2022-08-19T03:35:46.117Z,28.45
2022-08-19T03:38:35.492Z,27.42
2022-08-19T03:41:26.572Z,26.63
2022-08-19T03:44:33.355Z,28.25
2022-08-19T03:47:20.629Z,27.65
2022-08-19T03:50:09.689Z,29.17
2022-08-19T03:52:56.869Z,29.30
2022-08-19T03:55:43.996Z,33.58
2022-08-19T03:58:31.357Z,31.55
2022-08-19T04:01:30.352Z,32.50
2022-08-19T04:04:22.525Z,30.33
2022-08-19T04:07:10.715Z,33.17
2022-08-19T04:09:57.875Z,32.83
2022-08-19T04:12:52.159Z,33.85
2022-08-19T04:15:47.249Z,32.67
2022-08-19T04:18:37.627Z,33.67
2022-08-19T04:21:27.214Z,33.08
2022-08-19T04:24:15.510Z,34.10
2022-08-19T04:27:03.685Z,33.58
2022-08-19T04:29:51.932Z,33.67
2022-08-19T04:32:42.198Z,33.17
2022-08-19T04:35:29.296Z,33.05
2022-08-19T04:38:24.413Z,32.88
2022-08-19T04:41:31.694Z,33.92
2022-08-19T04:44:21.881Z,34.30
2022-08-19T04:47:11.285Z,34.13
2022-08-19T04:49:58.979Z,33.40
2022-08-19T04:52:46.290Z,32.42
2022-08-19T04:55:38.207Z,34.83
2022-08-19T04:58:27.417Z,34.28
2022-08-19T05:01:18.927Z,33.08
2022-08-19T05:04:07.413Z,34.22
2022-08-19T05:07:00.088Z,33.83
2022-08-19T05:09:58.560Z,34.45
2022-08-19T05:12:46.254Z,32.78
2022-08-19T05:15:33.396Z,33.13
2022-08-19T05:18:41.157Z,33.60
2022-08-19T05:21:47.545Z,32.55
2022-08-19T05:24:56.412Z,32.00
2022-08-19T05:27:47.905Z,33.63
2022-08-19T05:30:47.262Z,32.30
2022-08-19T05:33:37.229Z,34.92
2022-08-19T05:36:24.381Z,32.42
2022-08-19T05:39:16.712Z,33.45
2022-08-19T05:42:09.310Z,33.13
2022-08-19T05:44:56.973Z,34.33
2022-08-19T05:47:44.078Z,33.78
2022-08-19T05:50:31.415Z,32.92
2022-08-19T05:53:21.520Z,30.77
2022-08-19T05:56:13.784Z,31.45
2022-08-19T05:59:01.034Z,31.95
2022-08-19T06:01:52.679Z,30.92
2022-08-19T06:04:43.838Z,32.90
2022-08-19T06:07:31.080Z,31.85
2022-08-19T06:10:18.322Z,31.45
2022-08-19T06:13:06.694Z,31.58
2022-08-19T06:15:53.895Z,31.63
2022-08-19T06:18:41.060Z,30.45
2022-08-19T06:21:31.879Z,31.83
2022-08-19T06:24:24.327Z,32.67
2022-08-19T06:27:11.707Z,32.58
2022-08-19T06:30:00.960Z,31.17
2022-08-19T06:32:50.255Z,31.50
2022-08-19T06:35:42.886Z,30.02
2022-08-19T06:38:30.091Z,31.10
2022-08-19T06:41:17.275Z,31.70
2022-08-19T06:44:05.117Z,31.65
2022-08-19T06:46:54.857Z,30.27
2022-08-19T06:49:44.977Z,29.02
2022-08-19T06:52:34.995Z,28.67
2022-08-19T06:55:24.253Z,30.92
2022-08-19T06:58:11.583Z,29.25
2022-08-19T07:01:05.656Z,27.58
2022-08-19T07:03:56.221Z,29.42
2022-08-19T07:06:46.722Z,29.58
2022-08-19T07:09:44.377Z,29.38
2022-08-19T07:12:48.607Z,28.40
2022-08-19T07:15:38.494Z,27.08
2022-08-19T07:18:27.226Z,26.00
2022-08-19T07:21:17.951Z,26.13
2022-08-19T07:24:07.212Z,25.65
2022-08-19T07:26:57.733Z,26.45
2022-08-19T07:29:59.739Z,23.60
2022-08-19T07:32:47.272Z,25.43
2022-08-19T07:35:37.692Z,22.75
2022-08-19T07:38:27.390Z,23.65
2022-08-19T07:41:23.290Z,25.10
2022-08-19T07:44:11.607Z,24.33
2022-08-19T07:47:02.246Z,23.45
2022-08-19T07:49:49.792Z,23.63
2022-08-19T07:52:39.621Z,24.65
2022-08-19T07:55:42.751Z,25.15
2022-08-19T07:58:33.381Z,24.30
2022-08-19T08:01:26.410Z,25.17
2022-08-19T08:04:32.921Z,24.27
2022-08-19T08:07:39.953Z,26.55
2022-08-19T08:10:33.404Z,24.63
2022-08-19T08:13:21.557Z,24.90
2022-08-19T08:16:10.211Z,24.73
2022-08-19T08:18:58.042Z,25.02
2022-08-19T08:21:45.290Z,24.58
2022-08-19T08:24:33.006Z,27.33
2022-08-19T08:27:26.381Z,28.27
2022-08-19T08:30:22.796Z,25.52
2022-08-19T08:33:10.867Z,25.58
2022-08-19T08:35:58.186Z,24.13
2022-08-19T08:38:49.161Z,24.77
2022-08-19T08:41:57.726Z,25.23
2022-08-19T08:45:05.527Z,23.00
2022-08-19T08:47:56.785Z,23.52
2022-08-19T08:50:53.819Z,23.25
2022-08-19T08:53:43.244Z,24.73
2022-08-19T08:59:28.876Z,27.40
2022-08-19T09:02:16.982Z,29.67
2022-08-19T09:05:07.032Z,30.00
2022-08-19T09:08:00.454Z,29.77
2022-08-19T09:10:55.406Z,28.17
2022-08-19T09:13:50.737Z,30.75
2022-08-19T09:16:41.394Z,30.40
2022-08-19T09:19:29.464Z,27.90
2022-08-19T09:22:25.335Z,27.13
2022-08-19T09:25:27.090Z,26.23
2022-08-19T09:28:22.534Z,25.77
2022-08-19T09:31:17.605Z,27.55
2022-08-19T09:34:07.113Z,26.17
2022-08-19T09:36:56.202Z,26.90
2022-08-19T09:39:43.653Z,26.88
2022-08-19T09:42:35.343Z,26.23
2022-08-19T09:45:23.215Z,27.17
2022-08-19T09:48:19.127Z,27.13
2022-08-19T09:51:17.872Z,26.08
2022-08-19T09:54:06.356Z,26.60
2022-08-19T09:57:01.223Z,24.65
2022-08-19T09:59:51.829Z,23.75
2022-08-19T10:02:38.984Z,24.50
2022-08-19T10:05:45.444Z,23.63
2022-08-19T10:08:38.002Z,23.50
2022-08-19T10:11:36.543Z,23.98
2022-08-19T10:14:27.162Z,22.33
2022-08-19T10:17:19.169Z,22.67
2022-08-19T10:20:08.867Z,21.80
2022-08-19T10:23:00.422Z,22.15
2022-08-19T10:25:50.643Z,20.42
2022-08-19T10:28:43.207Z,20.08
2022-08-19T10:31:59.774Z,20.85
2022-08-19T10:34:48.657Z,19.85
2022-08-19T10:37:43.476Z,18.52
2022-08-19T10:40:46.141Z,18.65
2022-08-19T10:43:35.677Z,17.25
2022-08-19T10:46:25.221Z,15.65
2022-08-19T10:49:12.711Z,15.77
2022-08-19T10:52:19.376Z,15.45
2022-08-19T10:55:29.936Z,14.55
2022-08-19T10:58:24.680Z,13.15
2022-08-19T11:01:14.234Z,11.75
2022-08-19T11:04:03.606Z,11.95
2022-08-19T11:06:50.852Z,12.20
2022-08-19T11:09:41.533Z,12.25
2022-08-19T11:12:28.845Z,10.45
2022-08-19T11:15:16.500Z,11.60
2022-08-19T11:18:03.901Z,11.48
2022-08-19T11:20:52.065Z,10.77
2022-08-19T11:23:39.798Z,11.05
2022-08-19T11:26:28.426Z,11.75
2022-08-19T11:29:16.668Z,10.73
2022-08-19T11:32:10.589Z,11.25
2022-08-19T11:34:57.849Z,11.73
2022-08-19T11:37:45.016Z,11.35
2022-08-19T11:40:32.275Z,11.07
2022-08-19T11:43:21.842Z,10.88
2022-08-19T11:46:13.965Z,10.07
2022-08-19T11:49:03.210Z,10.38
2022-08-19T11:51:51.700Z,10.57
2022-08-19T11:54:41.177Z,10.18
2022-08-19T11:57:28.355Z,12.05
2022-08-19T12:00:15.980Z,11.00
2022-08-19T12:03:04.135Z,10.85
2022-08-19T12:05:52.271Z,10.65
2022-08-19T12:08:39.713Z,10.27
2022-08-19T12:11:29.387Z,11.40
2022-08-19T12:14:25.175Z,9.70
2022-08-19T12:17:14.379Z,9.50
2022-08-19T12:20:04.932Z,9.65
2022-08-19T12:22:54.591Z,9.55
2022-08-19T12:25:52.950Z,9.80
2022-08-19T12:28:40.375Z,9.05
2022-08-19T12:31:33.313Z,8.98
2022-08-19T12:34:21.276Z,8.73
2022-08-19T12:37:14.106Z,8.60
2022-08-19T12:40:01.431Z,8.77
2022-08-19T12:42:50.892Z,8.38
2022-08-19T12:45:38.618Z,7.55
2022-08-19T12:48:34.675Z,7.65
2022-08-19T12:51:22.492Z,8.15
2022-08-19T12:54:09.686Z,7.32
2022-08-19T12:56:57.213Z,7.00
2022-08-19T12:59:44.429Z,7.32
2022-08-19T13:02:39.059Z,7.47
2022-08-19T13:05:34.365Z,7.35
2022-08-19T13:08:23.836Z,6.78
2022-08-19T13:11:18.472Z,6.65
2022-08-19T13:14:08.831Z,6.72
2022-08-19T13:16:56.059Z,7.10
2022-08-19T13:19:43.286Z,6.38
2022-08-19T13:22:30.545Z,7.00
2022-08-19T13:25:20.482Z,6.70
2022-08-19T13:28:07.694Z,6.40
2022-08-19T13:31:13.597Z,6.15
2022-08-19T13:34:00.738Z,6.45
2022-08-19T13:36:48.080Z,6.90
2022-08-19T13:39:37.809Z,8.20
2022-08-19T13:42:25.230Z,20.52
2022-08-19T13:45:16.312Z,20.88
2022-08-19T13:48:09.299Z,19.55
2022-08-19T13:50:59.552Z,20.02
2022-08-19T13:53:49.611Z,20.70
2022-08-19T13:56:44.833Z,19.25
2022-08-19T13:59:32.288Z,19.50
2022-08-19T14:02:20.273Z,17.58
2022-08-19T14:05:09.688Z,19.70
2022-08-19T14:07:57.815Z,19.80
2022-08-19T14:10:47.800Z,19.45
2022-08-19T14:13:35.020Z,18.10
2022-08-19T14:16:25.711Z,17.02
2022-08-19T14:19:13.048Z,17.88
2022-08-19T14:22:00.237Z,19.08
2022-08-19T14:24:49.070Z,18.52
2022-08-19T14:27:40.359Z,19.55
2022-08-19T14:30:35.427Z,21.63
2022-08-19T14:33:28.537Z,21.30
2022-08-19T14:36:18.843Z,20.45
2022-08-19T14:39:08.527Z,19.75
2022-08-19T14:41:55.744Z,19.23
2022-08-19T14:44:43.889Z,19.90
2022-08-19T14:48:01.287Z,19.95
2022-08-19T14:50:49.054Z,17.95
2022-08-19T14:53:36.478Z,18.40
2022-08-19T14:56:29.153Z,16.90
2022-08-19T14:59:20.369Z,18.73
2022-08-19T15:02:33.641Z,21.50
2022-08-19T15:05:14.801Z,20.98
2022-08-19T15:08:04.974Z,20.05
2022-08-19T15:10:54.738Z,21.52
2022-08-19T15:13:43.004Z,20.42
2022-08-19T15:16:30.234Z,20.80
2022-08-19T15:19:17.523Z,19.35
2022-08-19T15:22:04.813Z,19.83
2022-08-19T15:24:51.918Z,20.05
2022-08-19T15:27:43.058Z,13.85
2022-08-19T15:30:34.473Z,16.75
2022-08-19T15:33:22.276Z,10.80
2022-08-19T15:36:10.693Z,12.75
2022-08-19T15:39:02.016Z,9.73
2022-08-19T15:41:52.556Z,6.97
2022-08-19T15:44:40.274Z,6.53
2022-08-19T15:47:35.407Z,6.93
2022-08-19T15:50:23.514Z,6.40
2022-08-19T15:53:11.481Z,5.95
2022-08-19T15:55:58.781Z,6.05
2022-08-19T15:59:06.818Z,6.20
2022-08-19T16:02:13.129Z,5.45
2022-08-19T16:05:18.783Z,6.10
2022-08-19T16:08:06.315Z,5.70
2022-08-19T16:10:55.578Z,6.05
2022-08-19T16:13:42.831Z,5.63
2022-08-19T16:16:33.931Z,5.72
2022-08-19T16:19:21.598Z,5.57
2022-08-19T16:22:09.408Z,5.47
2022-08-19T16:24:59.160Z,6.00
2022-08-19T16:27:49.132Z,6.20
2022-08-19T16:30:54.504Z,5.43
2022-08-19T16:33:44.162Z,6.20
2022-08-19T16:36:32.375Z,5.82
2022-08-19T16:39:24.178Z,6.20
2022-08-19T16:42:14.043Z,6.32
2022-08-19T16:45:01.188Z,6.30
2022-08-19T16:47:48.620Z,5.78
2022-08-19T16:50:49.243Z,6.57
2022-08-19T16:53:38.672Z,6.35
2022-08-19T16:56:26.750Z,6.38
2022-08-19T16:59:13.946Z,6.28
2022-08-19T17:02:01.969Z,6.35
2022-08-19T17:04:57.454Z,6.40
2022-08-19T17:07:57.838Z,6.78
2022-08-19T17:11:19.915Z,6.45
2022-08-19T17:14:09.912Z,6.80
2022-08-19T17:17:09.369Z,7.15
2022-08-19T17:20:04.809Z,6.55
2022-08-19T17:22:52.600Z,5.75
2022-08-19T17:25:40.988Z,6.15
2022-08-19T17:32:07.833Z,6.45
2022-08-19T17:34:55.212Z,5.60
2022-08-19T17:37:43.181Z,5.63
2022-08-19T17:40:30.627Z,5.85
2022-08-19T17:43:32.861Z,6.47
2022-08-19T17:46:23.783Z,5.97
2022-08-19T17:49:13.818Z,5.90
2022-08-19T17:52:02.319Z,5.85
2022-08-19T17:55:01.337Z,5.25
2022-08-19T17:57:51.609Z,5.90
2022-08-19T18:04:17.185Z,5.90
2022-08-19T18:07:04.768Z,7.32
2022-08-19T18:10:01.793Z,8.13
2022-08-19T18:12:50.501Z,9.25
2022-08-19T18:15:56.754Z,9.18
2022-08-19T18:18:54.903Z,10.60
2022-08-19T18:21:44.650Z,10.88
2022-08-19T18:24:31.777Z,13.30
2022-08-19T18:27:19.061Z,14.32
2022-08-19T18:30:10.480Z,15.50
2022-08-19T18:33:00.007Z,15.98
2022-08-19T18:35:51.995Z,17.40
2022-08-19T18:42:33.358Z,15.73
2022-08-19T18:45:39.262Z,16.83
2022-08-19T18:48:51.459Z,14.10
2022-08-19T18:51:38.641Z,10.50
2022-08-19T18:54:29.182Z,9.27
2022-08-19T18:57:19.748Z,8.80
2022-08-19T19:00:10.819Z,8.60
2022-08-19T19:02:58.308Z,8.90
2022-08-19T19:05:45.491Z,9.10
2022-08-19T19:08:33.364Z,9.25
2022-08-19T19:12:05.722Z,8.38
2022-08-19T19:15:06.855Z,8.52
2022-08-19T19:19:24.069Z,8.35
2022-08-19T19:21:42.746Z,8.52
2022-08-19T19:24:34.384Z,8.18
2022-08-19T19:27:23.903Z,7.50
2022-08-19T19:30:12.403Z,8.07
2022-08-19T19:33:02.042Z,8.43
2022-08-19T19:35:50.308Z,7.70
2022-08-19T19:38:37.589Z,8.18
2022-08-19T19:41:37.156Z,8.90
2022-08-19T19:44:30.952Z,8.35
2022-08-19T19:47:24.426Z,7.03
2022-08-19T19:50:15.776Z,7.38
2022-08-19T19:53:11.859Z,7.00
2022-08-19T19:55:59.132Z,7.32
2022-08-19T19:58:50.612Z,7.43
2022-08-19T20:01:39.035Z,6.75
2022-08-19T20:04:28.327Z,6.82
2022-08-19T20:07:15.488Z,7.25
2022-08-19T20:10:02.716Z,6.97
2022-08-19T20:12:52.405Z,6.63
2022-08-19T20:15:42.727Z,7.20
2022-08-19T20:18:32.727Z,6.78
2022-08-19T20:21:21.309Z,7.63
2022-08-19T20:24:10.350Z,7.75
2022-08-19T20:27:39.957Z,7.90
2022-08-19T20:30:32.604Z,7.00
2022-08-19T20:33:20.491Z,6.82
2022-08-19T20:36:10.433Z,5.72
2022-08-19T20:38:58.447Z,5.13
2022-08-19T20:41:49.398Z,4.93
2022-08-19T20:44:37.930Z,4.32
2022-08-19T20:47:25.799Z,5.05
2022-08-19T20:50:12.921Z,3.88
2022-08-19T20:53:00.651Z,3.97
2022-08-19T20:55:53.924Z,3.97
2022-08-19T20:58:51.566Z,3.72
2022-08-19T21:01:41.681Z,3.65
2022-08-19T21:04:29.246Z,3.42
2022-08-19T21:07:16.932Z,3.42
2022-08-19T21:10:09.750Z,3.80
2022-08-19T21:12:57.002Z,3.47
2022-08-19T21:15:45.284Z,3.50
2022-08-19T21:18:37.474Z,3.40
2022-08-19T21:21:28.953Z,3.40
2022-08-19T21:24:16.329Z,3.42
2022-08-19T21:27:03.462Z,3.00
2022-08-19T21:29:52.131Z,2.80
2022-08-19T21:32:41.726Z,2.65
2022-08-19T21:35:29.360Z,3.55
2022-08-19T21:38:18.750Z,2.88
2022-08-19T21:41:06.883Z,2.58
2022-08-19T21:43:54.128Z,3.40
2022-08-19T21:46:41.522Z,2.80
2022-08-19T21:49:28.783Z,2.60
2022-08-19T21:52:22.390Z,2.90
2022-08-19T21:55:12.694Z,2.92
2022-08-19T21:58:00.373Z,2.60
2022-08-19T22:00:50.507Z,2.47
2022-08-19T22:03:41.591Z,2.50
2022-08-19T22:06:28.752Z,2.50
2022-08-19T22:09:15.982Z,2.45
2022-08-19T22:12:06.203Z,2.00
2022-08-19T22:14:54.675Z,2.00
2022-08-19T22:17:57.492Z,2.15
2022-08-19T22:23:33.023Z,1.63
2022-08-19T22:26:26.823Z,1.60
2022-08-19T22:29:17.221Z,1.50
2022-08-19T22:32:27.052Z,1.58
2022-08-19T22:35:21.438Z,1.30
2022-08-19T22:38:10.264Z,1.55
2022-08-19T22:40:58.132Z,1.45
2022-08-19T22:43:47.016Z,1.42
2022-08-19T22:46:34.620Z,1.52
2022-08-19T22:49:22.208Z,1.90
2022-08-19T22:52:17.466Z,2.08
2022-08-19T22:55:09.985Z,1.50
2022-08-19T22:57:58.810Z,1.63
2022-08-19T23:00:46.048Z,2.88
2022-08-19T23:03:34.311Z,2.60
2022-08-19T23:06:33.584Z,1.60
2022-08-19T23:09:23.368Z,2.00
2022-08-19T23:12:12.753Z,1.67
2022-08-19T23:15:07.373Z,1.58
2022-08-19T23:17:58.046Z,1.63
2022-08-19T23:20:45.268Z,1.60
2022-08-19T23:23:32.777Z,1.60
2022-08-19T23:26:21.148Z,1.63
2022-08-19T23:29:29.844Z,1.70
2022-08-19T23:32:19.315Z,1.60
2022-08-19T23:35:08.689Z,1.77
2022-08-19T23:38:01.074Z,1.40
2022-08-19T23:40:48.594Z,1.80
2022-08-19T23:43:37.267Z,1.80
2022-08-19T23:46:29.536Z,1.75
2022-08-19T23:49:17.261Z,1.90
2022-08-19T23:52:07.436Z,1.40
2022-08-19T23:54:54.634Z,1.80
2022-08-19T23:57:42.316Z,1.65
